Terminal Aerodrome Forecast
Issued by NWS

Current Version | Previous Version | Graphics & Text | Print | Product List | Glossary On
Versions: 1 2 3 4 5 6 7 8 9 10 11 12 13 14 15 16 17 18 19 20 21 22 23 24 25
000
FTUS41 KRLX 210349 AAB
TAFCKB
TAF AMD
KCKB 210349Z 2104/2124 00000KT 2SM BR SCT001
      TEMPO 2104/2106 1/2SM FG BKN002
     FM210600 00000KT 1/2SM FG OVC001
     FM211300 00000KT 3SM BR BKN002
     FM211400 03003KT P6SM SCT040=

USA.gov is the U.S. government's official web portal to all federal, state and local government web resources and services.